createdAt,value
2019-02-06T00:01:32.896Z,4.33
2019-02-06T00:04:04.599Z,4.30
2019-02-06T00:06:36.400Z,4.23
2019-02-06T00:09:13.407Z,4.32
2019-02-06T00:11:43.940Z,4.25
2019-02-06T00:14:14.241Z,4.21
2019-02-06T00:16:45.974Z,4.19
2019-02-06T00:19:16.295Z,4.11
2019-02-06T00:21:47.108Z,4.06
2019-02-06T00:24:17.680Z,3.93
2019-02-06T00:26:48.242Z,3.90
2019-02-06T00:29:18.874Z,3.82
2019-02-06T00:31:49.574Z,3.74
2019-02-06T00:34:20.104Z,3.64
2019-02-06T00:36:50.430Z,3.63
2019-02-06T00:39:20.863Z,3.59
2019-02-06T00:41:51.408Z,3.50
2019-02-06T00:44:21.775Z,3.46
2019-02-06T00:46:52.711Z,3.37
2019-02-06T00:49:24.465Z,3.30
2019-02-06T00:51:54.787Z,3.21
2019-02-06T00:54:25.315Z,3.16
2019-02-06T00:56:55.830Z,3.11
2019-02-06T00:59:26.720Z,3.06
2019-02-06T01:01:59.125Z,3.02
2019-02-06T01:04:30.477Z,3.02
2019-02-06T01:07:01.808Z,2.99
2019-02-06T01:09:34.377Z,2.99
2019-02-06T01:12:04.717Z,2.95
2019-02-06T01:14:35.233Z,2.90
2019-02-06T01:17:14.434Z,2.81
2019-02-06T01:19:48.903Z,2.82
2019-02-06T01:22:19.338Z,2.80
2019-02-06T01:24:50.264Z,2.79
2019-02-06T01:27:21.817Z,2.74
2019-02-06T01:29:52.546Z,2.73
2019-02-06T01:32:23.464Z,2.75
2019-02-06T01:34:53.765Z,2.76
2019-02-06T01:37:24.527Z,2.73
2019-02-06T01:39:57.225Z,2.68
2019-02-06T01:42:27.505Z,2.68
2019-02-06T01:44:58.480Z,2.68
2019-02-06T01:47:36.224Z,2.66
2019-02-06T01:50:08.431Z,2.59
2019-02-06T01:52:39.052Z,2.62
2019-02-06T01:55:10.671Z,2.58
2019-02-06T01:57:41.003Z,2.54
2019-02-06T02:00:16.617Z,2.51
2019-02-06T02:02:46.915Z,2.48
2019-02-06T02:05:18.882Z,2.48
2019-02-06T02:07:49.669Z,2.46
2019-02-06T02:10:20.554Z,2.44
2019-02-06T02:12:51.064Z,2.37
2019-02-06T02:15:21.738Z,2.36
2019-02-06T02:17:52.204Z,2.39
2019-02-06T02:20:25.586Z,2.40
2019-02-06T02:22:56.373Z,2.41
2019-02-06T02:25:26.869Z,2.44
2019-02-06T02:27:58.199Z,2.41
2019-02-06T02:30:50.199Z,2.43
2019-02-06T02:33:20.474Z,2.44
2019-02-06T02:35:51.951Z,2.45
2019-02-06T02:38:22.430Z,2.47
2019-02-06T02:40:53.049Z,2.43
2019-02-06T02:43:23.730Z,2.45
2019-02-06T02:45:54.403Z,2.38
2019-02-06T02:48:24.875Z,2.36
2019-02-06T02:50:55.473Z,2.36
2019-02-06T02:53:28.156Z,2.38
2019-02-06T02:55:58.474Z,2.43
2019-02-06T02:58:29.034Z,2.43
2019-02-06T03:01:17.012Z,2.45
2019-02-06T03:04:01.667Z,2.48
2019-02-06T03:06:32.274Z,2.46
2019-02-06T03:09:02.645Z,2.48
2019-02-06T03:11:33.240Z,2.52
2019-02-06T03:14:03.514Z,2.52
2019-02-06T03:16:34.189Z,2.51
2019-02-06T03:19:04.398Z,2.48
2019-02-06T03:21:34.989Z,2.47
2019-02-06T03:24:05.603Z,2.45
2019-02-06T03:26:35.923Z,2.47
2019-02-06T03:29:06.526Z,2.44
2019-02-06T03:31:37.146Z,2.41
2019-02-06T03:34:07.495Z,2.37
2019-02-06T03:36:40.488Z,2.34
2019-02-06T03:39:10.497Z,2.35
2019-02-06T03:41:41.886Z,2.35
2019-02-06T03:44:12.402Z,2.34
2019-02-06T03:46:42.774Z,2.37
2019-02-06T03:49:13.509Z,2.41
2019-02-06T03:51:43.937Z,2.44
2019-02-06T03:54:14.262Z,2.52
2019-02-06T03:56:44.797Z,2.56
2019-02-06T03:59:16.255Z,2.59
2019-02-06T04:01:46.623Z,2.60
2019-02-06T04:04:16.982Z,2.63
2019-02-06T04:06:55.057Z,2.63
2019-02-06T04:09:19.948Z,2.73
2019-02-06T04:11:50.955Z,2.78
2019-02-06T04:14:21.382Z,2.82
2019-02-06T04:16:51.845Z,2.83
2019-02-06T04:19:22.271Z,2.85
2019-02-06T04:21:52.647Z,2.84
2019-02-06T04:24:23.002Z,2.84
2019-02-06T04:26:53.346Z,2.85
2019-02-06T04:29:25.869Z,2.86
2019-02-06T04:31:56.537Z,2.87
2019-02-06T04:34:26.861Z,2.92
2019-02-06T04:37:06.265Z,2.97
2019-02-06T04:39:29.372Z,2.96
2019-02-06T04:42:01.742Z,2.99
2019-02-06T04:44:32.224Z,3.01
2019-02-06T04:47:02.963Z,3.02
2019-02-06T04:49:34.596Z,2.99
2019-02-06T04:52:06.365Z,2.93
2019-02-06T04:54:36.630Z,2.85
2019-02-06T04:57:09.515Z,2.82
2019-02-06T04:59:39.477Z,2.92
2019-02-06T05:02:10.885Z,2.93
2019-02-06T05:04:41.335Z,2.91
2019-02-06T05:07:19.495Z,2.96
2019-02-06T05:09:43.645Z,2.98
2019-02-06T05:12:13.991Z,2.93
2019-02-06T05:14:44.320Z,2.90
2019-02-06T05:17:14.510Z,2.93
2019-02-06T05:19:45.171Z,2.97
2019-02-06T05:22:15.520Z,3.01
2019-02-06T05:24:46.062Z,3.04
2019-02-06T05:27:16.420Z,3.06
2019-02-06T05:29:46.711Z,3.02
2019-02-06T05:32:17.398Z,2.98
2019-02-06T05:34:47.748Z,2.96
2019-02-06T05:37:18.129Z,2.93
2019-02-06T05:39:48.455Z,2.96
2019-02-06T05:42:19.344Z,2.95
2019-02-06T05:44:50.332Z,2.97
2019-02-06T05:47:21.162Z,2.94
2019-02-06T05:49:51.437Z,2.96
2019-02-06T05:52:22.274Z,2.99
2019-02-06T05:54:52.855Z,2.98
2019-02-06T05:57:23.229Z,2.92
2019-02-06T05:59:53.625Z,2.93
2019-02-06T06:02:24.239Z,2.87
2019-02-06T06:04:54.510Z,2.90
2019-02-06T06:07:24.891Z,2.98
2019-02-06T06:09:55.224Z,3.00
2019-02-06T06:12:25.507Z,3.03
2019-02-06T06:14:55.859Z,3.01
2019-02-06T06:17:26.437Z,2.98
2019-02-06T06:19:57.935Z,3.02
2019-02-06T06:22:28.470Z,3.05
2019-02-06T06:24:58.796Z,3.04
2019-02-06T06:27:29.552Z,3.05
2019-02-06T06:30:00.101Z,3.04
2019-02-06T06:32:32.867Z,2.99
2019-02-06T06:35:03.396Z,3.04
2019-02-06T06:37:33.797Z,3.05
2019-02-06T06:40:04.435Z,3.06
2019-02-06T06:42:34.806Z,3.01
2019-02-06T06:45:06.620Z,3.02
2019-02-06T06:47:37.299Z,3.03
2019-02-06T06:50:09.785Z,3.04
2019-02-06T06:52:40.279Z,3.09
2019-02-06T06:55:11.756Z,3.06
2019-02-06T06:57:42.595Z,3.04
2019-02-06T07:00:19.520Z,3.05
2019-02-06T07:02:50.906Z,3.07
2019-02-06T07:05:21.296Z,3.04
2019-02-06T07:07:51.822Z,3.09
2019-02-06T07:10:22.937Z,3.13
2019-02-06T07:12:55.387Z,3.16
2019-02-06T07:15:28.270Z,3.16
2019-02-06T07:18:00.277Z,3.21
2019-02-06T07:20:30.744Z,3.23
2019-02-06T07:23:01.757Z,3.21
2019-02-06T07:25:32.830Z,3.25
2019-02-06T07:28:03.125Z,3.31
2019-02-06T07:30:35.446Z,3.33
2019-02-06T07:33:06.353Z,3.32
2019-02-06T07:35:38.165Z,3.35
2019-02-06T07:38:08.523Z,3.40
2019-02-06T07:40:38.744Z,3.44
2019-02-06T07:43:09.374Z,3.48
2019-02-06T07:45:39.956Z,3.47
2019-02-06T07:48:10.372Z,3.53
2019-02-06T07:50:42.079Z,3.55
2019-02-06T07:53:12.569Z,3.66
2019-02-06T07:55:42.892Z,3.73
2019-02-06T07:58:13.346Z,3.80
2019-02-06T08:00:46.906Z,3.85
2019-02-06T08:03:17.253Z,3.86
2019-02-06T08:05:47.781Z,3.84
2019-02-06T08:08:18.139Z,3.85
2019-02-06T08:10:49.057Z,3.89
2019-02-06T08:13:19.743Z,3.89
2019-02-06T08:15:50.491Z,3.89
2019-02-06T08:18:21.088Z,3.97
2019-02-06T08:20:51.791Z,3.92
2019-02-06T08:23:23.539Z,3.94
2019-02-06T08:25:53.755Z,3.90
2019-02-06T08:28:24.109Z,3.87
2019-02-06T08:30:54.806Z,3.86
2019-02-06T08:33:25.374Z,3.89
2019-02-06T08:35:55.816Z,3.90
2019-02-06T08:38:27.431Z,3.87
2019-02-06T08:40:58.058Z,3.87
2019-02-06T08:43:28.381Z,3.88
2019-02-06T08:45:59.071Z,3.90
2019-02-06T08:48:30.631Z,3.96
2019-02-06T08:51:01.028Z,3.98
2019-02-06T08:53:32.662Z,3.98
2019-02-06T08:56:03.397Z,4.03
2019-02-06T08:58:34.594Z,4.08
2019-02-06T09:01:05.555Z,4.10
2019-02-06T09:03:36.471Z,4.12
2019-02-06T09:06:06.838Z,4.19
2019-02-06T09:08:37.420Z,4.21
2019-02-06T09:11:07.999Z,4.22
2019-02-06T09:13:38.466Z,4.22
2019-02-06T09:16:08.754Z,4.24
2019-02-06T09:18:39.073Z,4.25
2019-02-06T09:21:09.576Z,4.25
2019-02-06T09:23:40.409Z,4.31
2019-02-06T09:26:11.056Z,4.37
2019-02-06T09:28:42.494Z,4.41
2019-02-06T09:31:12.765Z,4.44
2019-02-06T09:33:43.322Z,4.58
2019-02-06T09:36:19.507Z,4.67
2019-02-06T09:38:49.972Z,4.75
2019-02-06T09:41:22.101Z,4.81
2019-02-06T09:43:52.806Z,4.79
2019-02-06T09:46:23.213Z,4.77
2019-02-06T09:48:54.052Z,4.61
2019-02-06T09:51:24.441Z,4.53
2019-02-06T09:53:54.986Z,4.55
2019-02-06T09:56:25.374Z,4.57
2019-02-06T09:58:55.764Z,4.51
2019-02-06T10:01:27.181Z,4.54
2019-02-06T10:03:57.425Z,4.55
2019-02-06T10:06:27.851Z,4.59
2019-02-06T10:08:58.481Z,4.70
2019-02-06T10:11:28.804Z,4.74
2019-02-06T10:13:59.139Z,4.78
2019-02-06T10:16:29.872Z,4.83
2019-02-06T10:19:00.424Z,4.86
2019-02-06T10:21:31.244Z,4.88
2019-02-06T10:24:07.573Z,4.87
2019-02-06T10:26:38.191Z,4.88
2019-02-06T10:29:08.822Z,4.93
2019-02-06T10:31:39.347Z,4.96
2019-02-06T10:34:09.834Z,5.02
2019-02-06T10:36:40.074Z,5.03
2019-02-06T10:39:10.367Z,5.07
2019-02-06T10:41:40.808Z,5.09
2019-02-06T10:44:11.115Z,5.12
2019-02-06T10:46:41.397Z,5.06
2019-02-06T10:49:13.032Z,5.07
2019-02-06T10:51:43.466Z,5.07
2019-02-06T10:54:14.706Z,5.17
2019-02-06T10:56:45.101Z,5.20
2019-02-06T10:59:15.481Z,5.13
2019-02-06T11:01:46.261Z,5.13
2019-02-06T11:04:16.639Z,5.13
2019-02-06T11:06:47.030Z,5.09
2019-02-06T11:09:17.584Z,5.09
2019-02-06T11:11:48.045Z,5.04
2019-02-06T11:14:20.945Z,5.06
2019-02-06T11:16:51.415Z,5.07
2019-02-06T11:19:22.127Z,4.99
2019-02-06T11:21:52.387Z,4.94
2019-02-06T11:24:22.814Z,4.91
2019-02-06T11:26:53.104Z,4.87
2019-02-06T11:29:24.041Z,4.86
2019-02-06T11:31:54.547Z,4.84
2019-02-06T11:34:25.147Z,4.86
2019-02-06T11:36:55.608Z,4.82
2019-02-06T11:39:25.964Z,4.77
2019-02-06T11:41:56.290Z,4.76
2019-02-06T11:44:26.604Z,4.73
2019-02-06T11:46:56.963Z,4.72
2019-02-06T11:49:33.510Z,4.69
2019-02-06T11:52:05.298Z,4.73
2019-02-06T11:54:35.711Z,4.76
2019-02-06T11:57:06.591Z,4.75
2019-02-06T11:59:59.588Z,4.68
2019-02-06T12:02:36.955Z,4.69
2019-02-06T12:05:02.197Z,4.63
2019-02-06T12:07:32.497Z,4.63
2019-02-06T12:10:09.992Z,4.63
2019-02-06T12:12:35.467Z,4.63
2019-02-06T12:15:08.999Z,4.67
2019-02-06T12:17:39.245Z,4.67
2019-02-06T12:20:12.703Z,4.64
2019-02-06T12:22:43.127Z,4.60
2019-02-06T12:25:14.387Z,4.61
2019-02-06T12:27:44.903Z,4.63
2019-02-06T12:30:21.470Z,4.62
2019-02-06T12:32:52.634Z,4.64
2019-02-06T12:35:22.976Z,4.61
2019-02-06T12:37:53.558Z,4.63
2019-02-06T12:40:24.246Z,4.68
2019-02-06T12:42:55.065Z,4.72
2019-02-06T12:45:25.561Z,4.71
2019-02-06T12:47:56.441Z,4.74
2019-02-06T12:50:30.149Z,4.73
2019-02-06T12:53:00.736Z,4.74
2019-02-06T12:55:32.898Z,4.76
2019-02-06T12:58:03.281Z,4.77
2019-02-06T13:00:34.108Z,4.78
2019-02-06T13:03:04.552Z,4.81
2019-02-06T13:05:35.119Z,4.79
2019-02-06T13:08:06.074Z,4.81
2019-02-06T13:10:36.455Z,4.78
2019-02-06T13:13:07.049Z,4.75
2019-02-06T13:15:37.885Z,4.80
2019-02-06T13:18:08.295Z,4.77
2019-02-06T13:20:38.662Z,4.69
2019-02-06T13:23:09.203Z,4.71
2019-02-06T13:25:39.728Z,4.76
2019-02-06T13:28:10.581Z,4.82
2019-02-06T13:30:41.701Z,4.84
2019-02-06T13:33:12.073Z,4.89
2019-02-06T13:35:42.531Z,4.82
2019-02-06T13:38:13.094Z,4.84
2019-02-06T13:40:45.786Z,4.92
2019-02-06T13:43:16.098Z,4.91
2019-02-06T13:45:47.938Z,4.93
2019-02-06T13:48:19.469Z,4.86
2019-02-06T13:50:49.909Z,4.92
2019-02-06T13:53:20.759Z,4.89
2019-02-06T13:55:51.997Z,4.87
2019-02-06T13:58:22.548Z,4.93
2019-02-06T14:00:53.230Z,5.00
2019-02-06T14:03:23.900Z,5.10
2019-02-06T14:05:54.185Z,5.12
2019-02-06T14:08:24.703Z,5.17
2019-02-06T14:11:00.717Z,5.07
2019-02-06T14:13:31.415Z,5.13
2019-02-06T14:16:02.089Z,5.15
2019-02-06T14:18:32.443Z,5.11
2019-02-06T14:21:02.843Z,5.09
2019-02-06T14:23:37.802Z,5.13
2019-02-06T14:26:17.030Z,5.07
2019-02-06T14:29:29.961Z,5.07
2019-02-06T14:32:24.316Z,5.19
2019-02-06T14:35:17.921Z,5.27
2019-02-06T14:38:17.648Z,5.29
2019-02-06T14:41:20.766Z,5.33
2019-02-06T14:44:38.444Z,5.34
2019-02-06T14:47:38.998Z,5.30
2019-02-06T14:50:21.379Z,5.25
2019-02-06T14:53:14.996Z,5.27
2019-02-06T14:56:35.010Z,5.24
2019-02-06T14:59:37.458Z,5.29
2019-02-06T15:02:46.621Z,5.28
2019-02-06T15:05:52.485Z,5.34
2019-02-06T15:09:06.698Z,5.38
2019-02-06T15:11:59.304Z,5.37
2019-02-06T15:15:08.258Z,5.35
2019-02-06T15:18:00.961Z,5.42
2019-02-06T15:21:18.138Z,5.41
2019-02-06T15:24:35.946Z,5.31
2019-02-06T15:27:26.935Z,5.32
2019-02-06T15:30:40.624Z,5.39
2019-02-06T15:34:04.533Z,5.41
2019-02-06T15:37:04.588Z,5.40
2019-02-06T15:40:21.573Z,5.37
2019-02-06T15:43:48.196Z,5.39
2019-02-06T15:46:57.495Z,5.38
2019-02-06T15:50:03.537Z,5.37
2019-02-06T15:53:12.318Z,5.39
2019-02-06T15:56:38.641Z,5.38
2019-02-06T15:59:54.596Z,5.41
2019-02-06T16:02:52.504Z,5.45
2019-02-06T16:06:25.894Z,5.31
2019-02-06T16:09:36.869Z,5.40
2019-02-06T16:12:49.841Z,5.41
2019-02-06T16:15:58.223Z,5.33
2019-02-06T16:18:43.546Z,5.47
2019-02-06T16:21:35.685Z,5.45
2019-02-06T16:24:53.077Z,5.51
2019-02-06T16:28:25.503Z,5.52
2019-02-06T16:31:27.175Z,5.51
2019-02-06T16:34:37.813Z,5.49
2019-02-06T16:37:52.422Z,5.49
2019-02-06T16:40:59.331Z,5.52
2019-02-06T16:44:00.809Z,5.49
2019-02-06T16:47:00.070Z,5.50
2019-02-06T16:50:03.056Z,5.53
2019-02-06T16:53:00.092Z,5.51
2019-02-06T16:56:09.091Z,5.57
2019-02-06T16:59:17.769Z,5.46
2019-02-06T17:02:29.885Z,5.53
2019-02-06T17:05:37.196Z,5.54
2019-02-06T17:08:59.495Z,5.53
2019-02-06T17:11:52.741Z,5.57
2019-02-06T17:15:11.152Z,5.64
2019-02-06T17:18:21.978Z,5.51
2019-02-06T17:21:13.212Z,5.64
2019-02-06T17:24:34.602Z,5.70
2019-02-06T17:27:19.704Z,5.73
2019-02-06T17:30:42.910Z,5.80
2019-02-06T17:33:49.179Z,5.83
2019-02-06T17:37:12.630Z,5.82
2019-02-06T17:40:29.797Z,5.78
2019-02-06T17:43:37.416Z,5.83
2019-02-06T17:47:06.670Z,5.89
2019-02-06T17:50:25.138Z,5.86
2019-02-06T17:53:08.554Z,5.77
2019-02-06T17:55:38.881Z,5.77
2019-02-06T17:58:11.194Z,5.82
2019-02-06T18:01:25.336Z,5.85
2019-02-06T18:04:03.547Z,5.83
2019-02-06T18:06:34.034Z,5.78
2019-02-06T18:09:09.391Z,5.75
2019-02-06T18:11:42.234Z,5.79
2019-02-06T18:14:12.838Z,5.77
2019-02-06T18:16:44.491Z,5.76
2019-02-06T18:19:14.968Z,5.80
2019-02-06T18:21:45.890Z,5.84
2019-02-06T18:24:16.212Z,5.83
2019-02-06T18:26:47.355Z,5.84
2019-02-06T18:29:17.722Z,5.76
2019-02-06T18:31:48.099Z,5.78
2019-02-06T18:34:20.030Z,5.78
2019-02-06T18:36:51.771Z,5.83
2019-02-06T18:39:23.230Z,5.78
2019-02-06T18:41:53.951Z,5.79
2019-02-06T18:44:25.204Z,5.83
2019-02-06T18:46:56.814Z,5.78
2019-02-06T18:49:28.237Z,5.75
2019-02-06T18:52:04.365Z,5.77
2019-02-06T18:54:35.120Z,5.78
2019-02-06T18:57:07.535Z,5.80
2019-02-06T18:59:38.028Z,5.88
2019-02-06T19:02:09.592Z,5.79
2019-02-06T19:04:39.933Z,5.79
2019-02-06T19:07:10.396Z,5.80
2019-02-06T19:09:46.977Z,5.82
2019-02-06T19:12:18.492Z,5.90
2019-02-06T19:14:50.892Z,5.93
2019-02-06T19:17:26.745Z,5.96
2019-02-06T19:20:11.018Z,5.99
2019-02-06T19:22:41.558Z,6.02
2019-02-06T19:25:12.865Z,6.01
2019-02-06T19:27:45.264Z,5.86
2019-02-06T19:30:20.002Z,5.91
2019-02-06T19:32:51.820Z,5.95
2019-02-06T19:35:22.631Z,5.98
2019-02-06T19:37:53.268Z,6.02
2019-02-06T19:40:23.706Z,6.03
2019-02-06T19:43:00.420Z,5.96
2019-02-06T19:45:27.691Z,6.04
2019-02-06T19:47:58.600Z,6.02
2019-02-06T19:50:31.656Z,5.99
2019-02-06T19:53:03.483Z,6.00
2019-02-06T19:55:34.877Z,6.00
2019-02-06T19:58:06.779Z,6.00
2019-02-06T20:00:39.122Z,6.02
2019-02-06T20:03:09.985Z,5.92
2019-02-06T20:05:40.514Z,5.87
2019-02-06T20:08:14.245Z,5.96
2019-02-06T20:10:46.464Z,6.01
2019-02-06T20:13:21.513Z,6.01
2019-02-06T20:15:59.634Z,6.00
2019-02-06T20:18:39.827Z,5.98
2019-02-06T20:21:13.595Z,6.05
2019-02-06T20:23:43.901Z,6.04
2019-02-06T20:26:14.383Z,6.05
2019-02-06T20:28:45.172Z,6.05
2019-02-06T20:31:15.761Z,5.98
2019-02-06T20:33:46.242Z,5.96
2019-02-06T20:36:16.538Z,5.98
2019-02-06T20:38:46.785Z,5.85
2019-02-06T20:41:17.496Z,5.91
2019-02-06T20:43:49.257Z,5.93
2019-02-06T20:46:23.742Z,5.94
2019-02-06T20:48:54.373Z,5.95
2019-02-06T20:51:25.748Z,5.98
2019-02-06T20:53:59.415Z,5.98
2019-02-06T20:56:30.058Z,5.95
2019-02-06T20:59:00.505Z,5.98
2019-02-06T21:01:30.873Z,5.98
2019-02-06T21:04:01.424Z,5.94
2019-02-06T21:06:32.692Z,5.95
2019-02-06T21:09:05.212Z,5.95
2019-02-06T21:11:36.556Z,5.93
2019-02-06T21:14:07.454Z,5.90
2019-02-06T21:16:38.054Z,5.88
2019-02-06T21:19:10.707Z,5.94
2019-02-06T21:21:41.354Z,5.94
2019-02-06T21:24:12.409Z,5.95
2019-02-06T21:26:44.518Z,5.96
2019-02-06T21:29:15.068Z,5.96
2019-02-06T21:31:46.119Z,5.94
2019-02-06T21:34:16.471Z,5.87
2019-02-06T21:36:47.228Z,5.84
2019-02-06T21:39:17.851Z,5.84
2019-02-06T21:41:48.153Z,5.92
2019-02-06T21:44:18.527Z,6.00
2019-02-06T21:46:48.949Z,6.00
2019-02-06T21:49:19.318Z,5.95
2019-02-06T21:51:52.238Z,6.02
2019-02-06T21:54:22.894Z,6.02
2019-02-06T21:56:53.300Z,6.07
2019-02-06T21:59:24.665Z,6.09
2019-02-06T22:01:56.429Z,6.10
2019-02-06T22:04:27.983Z,6.11
2019-02-06T22:07:00.944Z,6.00
2019-02-06T22:09:31.240Z,5.94
2019-02-06T22:12:01.888Z,5.90
2019-02-06T22:14:34.297Z,5.95
2019-02-06T22:17:05.352Z,5.97
2019-02-06T22:19:36.867Z,6.04
2019-02-06T22:22:07.308Z,6.04
2019-02-06T22:24:38.211Z,6.00
2019-02-06T22:27:09.326Z,5.96
2019-02-06T22:29:40.633Z,6.05
2019-02-06T22:32:20.342Z,6.06
2019-02-06T22:35:01.019Z,6.00
2019-02-06T22:37:33.187Z,6.03
2019-02-06T22:40:10.978Z,6.10
2019-02-06T22:42:43.239Z,6.09
2019-02-06T22:45:22.265Z,6.08
2019-02-06T22:47:54.024Z,6.11
2019-02-06T22:50:26.219Z,6.14
2019-02-06T22:52:57.124Z,6.18
2019-02-06T22:55:27.964Z,6.22
2019-02-06T22:57:58.646Z,6.26
2019-02-06T23:00:59.541Z,6.27
2019-02-06T23:03:42.046Z,6.21
2019-02-06T23:06:13.775Z,6.24
2019-02-06T23:08:45.579Z,6.23
2019-02-06T23:11:30.754Z,6.20
2019-02-06T23:14:01.428Z,6.21
2019-02-06T23:16:32.033Z,6.28
2019-02-06T23:19:05.741Z,6.27
2019-02-06T23:21:36.255Z,6.17
2019-02-06T23:24:06.901Z,6.08
2019-02-06T23:26:37.169Z,6.04
2019-02-06T23:29:08.045Z,6.01
2019-02-06T23:31:38.876Z,6.00
2019-02-06T23:34:09.487Z,5.98
2019-02-06T23:36:39.851Z,5.98
2019-02-06T23:39:17.658Z,6.04
2019-02-06T23:41:48.119Z,6.04
2019-02-06T23:44:28.518Z,6.06
2019-02-06T23:46:51.614Z,6.09
2019-02-06T23:49:21.899Z,6.09
2019-02-06T23:51:55.440Z,6.05
2019-02-06T23:54:26.118Z,5.99
2019-02-06T23:56:57.089Z,5.99
2019-02-06T23:59:28.466Z,5.97
